Time;durP1;ratioP1;P1;durP2;ratioP2;P2;SDS_P1;SDS_P2;PMS_P1;PMS_P2;Temp;Humidity;BMP_temperature;BMP_pressure;BME280_temperature;BME280_humidity;BME280_pressure;Samples;Min_cycle;Max_cycle;Signal;HPM_P1;HPM_P2
2020/12/18 00:00:21;;;;;;;14.13;11.60;;;;;;;;;;5055380;28;20220;-59
2020/12/18 00:02:46;;;;;;;14.57;12.33;;;;;;;;;;5055137;28;20629;-60
2020/12/18 00:05:12;;;;;;;14.33;11.80;;;;;;;;;;5056295;28;20225;-60
2020/12/18 00:07:37;;;;;;;12.83;10.87;;;;;;;;;;5056043;28;20312;-60
2020/12/18 00:10:02;;;;;;;11.27;10.17;;;;;;;;;;5055070;28;20299;-60
2020/12/18 00:12:29;;;;;;;13.03;10.63;;;;;;;;;;5055088;28;20230;-60
2020/12/18 00:14:54;;;;;;;15.33;11.30;;;;;;;;;;5055854;28;20229;-59
2020/12/18 00:17:20;;;;;;;11.07;9.97;;;;;;;;;;5055523;28;20478;-61
2020/12/18 00:19:45;;;;;;;12.73;11.43;;;;;;;;;;5055619;28;20307;-58
2020/12/18 00:22:10;;;;;;;11.90;10.77;;;;;;;;;;5056570;28;20594;-59
2020/12/18 00:24:35;;;;;;;10.97;9.67;;;;;;;;;;5055445;28;20305;-60
2020/12/18 00:27:01;;;;;;;11.63;10.43;;;;;;;;;;5057180;28;20218;-60
2020/12/18 00:29:27;;;;;;;13.70;10.53;;;;;;;;;;5059903;28;20560;-60
2020/12/18 00:31:53;;;;;;;12.57;11.20;;;;;;;;;;5059902;28;20520;-60
2020/12/18 00:34:18;;;;;;;12.27;10.27;;;;;;;;;;5057033;28;20815;-60
2020/12/18 00:36:49;;;;;;;13.73;11.60;;;;;;;;;;5058707;28;20220;-60
2020/12/18 00:39:14;;;;;;;13.63;12.07;;;;;;;;;;5059434;28;20572;-60
2020/12/18 00:41:40;;;;;;;11.40;10.13;;;;;;;;;;5057272;28;20451;-60
2020/12/18 00:44:05;;;;;;;11.83;10.13;;;;;;;;;;5057284;28;20296;-60
2020/12/18 00:46:30;;;;;;;12.13;10.53;;;;;;;;;;5057667;28;20277;-59
2020/12/18 00:48:55;;;;;;;12.40;10.77;;;;;;;;;;5057821;28;20282;-61
2020/12/18 00:51:21;;;;;;;12.40;10.67;;;;;;;;;;5056823;28;20213;-59
2020/12/18 00:53:46;;;;;;;11.17;10.00;;;;;;;;;;5058092;28;20215;-59
2020/12/18 00:56:11;;;;;;;13.13;11.83;;;;;;;;;;5057477;28;20221;-59
2020/12/18 00:58:37;;;;;;;11.47;10.37;;;;;;;;;;5055145;28;20199;-61
2020/12/18 01:01:03;;;;;;;11.87;10.67;;;;;;;;;;5057620;28;20217;-59
2020/12/18 01:03:29;;;;;;;13.80;11.40;;;;;;;;;;5057915;28;20426;-59
2020/12/18 01:05:54;;;;;;;12.33;10.80;;;;;;;;;;5056147;28;20487;-60
2020/12/18 01:08:19;;;;;;;13.83;10.07;;;;;;;;;;5057387;28;20618;-60
2020/12/18 01:10:45;;;;;;;12.40;10.73;;;;;;;;;;5057577;28;20224;-60
2020/12/18 01:13:10;;;;;;;12.77;11.27;;;;;;;;;;5056422;28;20279;-60
2020/12/18 01:15:35;;;;;;;11.97;10.70;;;;;;;;;;5055419;28;20205;-60
2020/12/18 01:18:01;;;;;;;12.40;9.80;;;;;;;;;;5057896;28;20702;-60
2020/12/18 01:20:26;;;;;;;13.03;11.70;;;;;;;;;;5057585;28;20212;-59
2020/12/18 01:22:51;;;;;;;13.10;11.30;;;;;;;;;;5055997;28;20284;-60
2020/12/18 01:25:16;;;;;;;12.07;10.10;;;;;;;;;;5057551;28;20300;-61
2020/12/18 01:27:41;;;;;;;11.87;10.67;;;;;;;;;;5057265;28;20734;-60
2020/12/18 01:30:07;;;;;;;12.40;11.03;;;;;;;;;;5055964;28;20292;-60
2020/12/18 01:32:32;;;;;;;11.27;10.17;;;;;;;;;;5056485;28;20260;-60
2020/12/18 01:34:57;;;;;;;12.57;9.90;;;;;;;;;;5057721;28;20294;-61
2020/12/18 01:37:23;;;;;;;12.30;11.03;;;;;;;;;;5055565;28;20641;-60
2020/12/18 01:39:48;;;;;;;13.17;11.63;;;;;;;;;;5055861;28;20294;-60
2020/12/18 01:42:13;;;;;;;13.90;11.53;;;;;;;;;;5057546;28;20215;-60
2020/12/18 01:44:38;;;;;;;11.57;10.40;;;;;;;;;;5056641;28;20296;-61
2020/12/18 01:47:12;;;;;;;12.23;10.87;;;;;;;;;;5056218;28;20230;-60
2020/12/18 01:49:38;;;;;;;10.57;9.47;;;;;;;;;;5067828;28;20230;-60
2020/12/18 01:52:03;;;;;;;12.63;10.50;;;;;;;;;;5076353;28;20774;-59
2020/12/18 01:54:29;;;;;;;12.13;10.60;;;;;;;;;;5055269;28;20668;-60
2020/12/18 01:56:54;;;;;;;12.50;11.00;;;;;;;;;;5056962;28;20217;-60
2020/12/18 01:59:19;;;;;;;11.27;10.07;;;;;;;;;;5057348;28;20218;-60
2020/12/18 02:01:45;;;;;;;11.30;10.10;;;;;;;;;;5055435;28;20229;-59
2020/12/18 02:04:10;;;;;;;13.20;11.20;;;;;;;;;;5056759;28;20219;-60
2020/12/18 02:06:37;;;;;;;12.23;11.03;;;;;;;;;;5057026;28;20288;-60
2020/12/18 02:09:04;;;;;;;13.43;11.30;;;;;;;;;;5056490;28;20301;-60
2020/12/18 02:11:32;;;;;;;14.03;12.53;;;;;;;;;;5056015;28;21043;-61
2020/12/18 02:13:57;;;;;;;13.57;10.60;;;;;;;;;;5056783;28;20897;-60
2020/12/18 02:16:23;;;;;;;11.60;10.40;;;;;;;;;;5056993;28;20528;-61
2020/12/18 02:18:48;;;;;;;16.20;10.83;;;;;;;;;;5055526;28;20228;-61
2020/12/18 02:21:14;;;;;;;12.73;11.53;;;;;;;;;;5056924;28;20224;-59
2020/12/18 02:23:40;;;;;;;11.87;10.37;;;;;;;;;;5056516;28;20973;-59
2020/12/18 02:26:08;;;;;;;14.60;11.90;;;;;;;;;;5055541;28;20542;-60
2020/12/18 02:28:36;;;;;;;13.17;11.87;;;;;;;;;;5056102;28;20445;-60
2020/12/18 02:31:01;;;;;;;13.63;11.07;;;;;;;;;;5055271;28;21825;-60
2020/12/18 02:33:27;;;;;;;13.33;11.93;;;;;;;;;;5055279;28;20471;-60
2020/12/18 02:35:52;;;;;;;12.30;11.00;;;;;;;;;;5055045;28;20225;-60
2020/12/18 02:38:19;;;;;;;12.70;9.47;;;;;;;;;;5056529;28;20300;-60
2020/12/18 02:40:45;;;;;;;13.63;11.80;;;;;;;;;;5055114;28;20529;-60
2020/12/18 02:43:10;;;;;;;11.73;10.53;;;;;;;;;;5054741;28;20455;-60
2020/12/18 02:45:35;;;;;;;15.90;12.90;;;;;;;;;;5056540;28;20212;-60
2020/12/18 02:48:00;;;;;;;15.03;10.70;;;;;;;;;;5055464;28;20660;-60
2020/12/18 02:50:26;;;;;;;12.57;10.03;;;;;;;;;;5054617;28;20220;-60
2020/12/18 02:52:51;;;;;;;14.60;11.30;;;;;;;;;;5055751;28;20240;-60
2020/12/18 02:55:16;;;;;;;15.00;12.20;;;;;;;;;;5056230;28;20303;-60
2020/12/18 02:57:41;;;;;;;12.00;10.50;;;;;;;;;;5054223;28;20221;-60
2020/12/18 03:00:07;;;;;;;13.13;11.87;;;;;;;;;;5055002;28;20309;-61
2020/12/18 03:02:32;;;;;;;15.43;11.70;;;;;;;;;;5055871;28;20233;-60
2020/12/18 03:04:58;;;;;;;14.23;10.10;;;;;;;;;;5055260;28;20308;-60
2020/12/18 03:07:23;;;;;;;15.80;10.87;;;;;;;;;;5055654;28;20217;-60
2020/12/18 03:09:48;;;;;;;15.00;11.37;;;;;;;;;;5055362;28;20478;-59
2020/12/18 03:12:14;;;;;;;15.77;12.47;;;;;;;;;;5055229;28;20303;-60
2020/12/18 03:14:39;;;;;;;12.47;10.47;;;;;;;;;;5055142;28;20222;-60
2020/12/18 03:17:04;;;;;;;11.70;10.67;;;;;;;;;;5055588;28;20568;-60
2020/12/18 03:19:30;;;;;;;12.83;10.80;;;;;;;;;;5055127;28;20277;-60
2020/12/18 03:21:55;;;;;;;13.20;11.30;;;;;;;;;;5054958;28;20225;-60
2020/12/18 03:24:20;;;;;;;13.97;12.40;;;;;;;;;;5043747;28;20211;-60
2020/12/18 03:26:46;;;;;;;14.30;11.50;;;;;;;;;;5051739;28;20634;-60
2020/12/18 03:29:11;;;;;;;12.20;10.67;;;;;;;;;;5055881;28;20247;-60
2020/12/18 03:31:36;;;;;;;13.40;11.43;;;;;;;;;;5055390;28;20313;-60
2020/12/18 03:34:02;;;;;;;11.83;10.67;;;;;;;;;;5055338;28;20213;-60
2020/12/18 03:36:28;;;;;;;12.90;11.50;;;;;;;;;;5055508;28;20228;-61
2020/12/18 03:38:53;;;;;;;12.67;10.30;;;;;;;;;;5054939;28;20226;-61
2020/12/18 03:41:18;;;;;;;12.27;10.50;;;;;;;;;;5055307;28;20538;-61
2020/12/18 03:43:44;;;;;;;16.20;11.53;;;;;;;;;;5054808;28;20233;-60
2020/12/18 03:46:09;;;;;;;11.20;10.20;;;;;;;;;;5054840;28;20658;-60
2020/12/18 03:48:34;;;;;;;12.03;10.27;;;;;;;;;;5053861;28;20262;-61
2020/12/18 03:51:00;;;;;;;12.50;11.20;;;;;;;;;;5052895;28;20371;-60
2020/12/18 03:53:26;;;;;;;13.70;10.60;;;;;;;;;;5035104;28;20217;-61
2020/12/18 03:55:51;;;;;;;11.13;10.03;;;;;;;;;;5044030;28;20221;-60
2020/12/18 03:58:16;;;;;;;14.50;11.13;;;;;;;;;;5038455;28;20557;-59
2020/12/18 04:00:42;;;;;;;11.77;10.30;;;;;;;;;;5034472;28;20320;-60
2020/12/18 04:03:07;;;;;;;11.10;10.00;;;;;;;;;;5035073;28;20355;-60
2020/12/18 04:05:32;;;;;;;11.37;10.17;;;;;;;;;;5051312;28;20308;-60
2020/12/18 04:07:57;;;;;;;11.23;10.13;;;;;;;;;;5054071;28;20526;-60
2020/12/18 04:10:23;;;;;;;11.53;10.33;;;;;;;;;;5054648;28;20216;-60
2020/12/18 04:12:48;;;;;;;13.70;12.27;;;;;;;;;;5054241;28;20635;-60
2020/12/18 04:15:13;;;;;;;17.63;12.40;;;;;;;;;;5055181;28;20225;-61
2020/12/18 04:17:39;;;;;;;13.33;10.33;;;;;;;;;;5047042;28;20257;-61
2020/12/18 04:20:04;;;;;;;12.13;10.93;;;;;;;;;;5033909;28;20221;-61
2020/12/18 04:22:29;;;;;;;12.27;10.90;;;;;;;;;;5054052;28;20221;-61
2020/12/18 04:24:58;;;;;;;11.40;9.87;;;;;;;;;;5064836;28;20225;-61
2020/12/18 04:27:23;;;;;;;12.33;10.70;;;;;;;;;;5069141;28;20269;-60
2020/12/18 04:29:55;;;;;;;13.03;11.10;;;;;;;;;;5055668;28;20801;-60
2020/12/18 04:32:20;;;;;;;12.83;10.80;;;;;;;;;;5058599;28;20230;-60
2020/12/18 04:34:46;;;;;;;13.33;11.97;;;;;;;;;;5054894;28;20486;-60
2020/12/18 04:37:11;;;;;;;13.67;12.00;;;;;;;;;;5064967;28;20711;-60
2020/12/18 04:39:42;;;;;;;13.43;11.93;;;;;;;;;;5064999;28;20467;-60
2020/12/18 04:42:08;;;;;;;13.27;11.03;;;;;;;;;;5060343;28;20541;-60
2020/12/18 04:44:34;;;;;;;12.53;11.30;;;;;;;;;;5063583;28;20555;-60
2020/12/18 04:46:59;;;;;;;12.57;11.27;;;;;;;;;;5066519;28;20705;-60
2020/12/18 04:49:31;;;;;;;14.90;13.30;;;;;;;;;;5055154;28;20240;-60
2020/12/18 04:52:00;;;;;;;15.23;11.60;;;;;;;;;;5057793;28;20243;-60
2020/12/18 04:54:33;;;;;;;14.70;12.60;;;;;;;;;;5062776;28;20462;-60
2020/12/18 04:56:59;;;;;;;15.27;12.97;;;;;;;;;;5047434;28;20441;-59
2020/12/18 04:59:27;;;;;;;17.90;12.10;;;;;;;;;;5061702;28;20969;-60
2020/12/18 05:01:57;;;;;;;14.50;12.40;;;;;;;;;;5065892;28;20236;-59
2020/12/18 05:04:22;;;;;;;12.50;11.20;;;;;;;;;;5066537;28;20475;-60
2020/12/18 05:07:06;;;;;;;13.30;11.80;;;;;;;;;;5059113;28;20477;-59
2020/12/18 05:09:31;;;;;;;15.70;11.70;;;;;;;;;;5060795;28;20263;-60
2020/12/18 05:12:07;;;;;;;13.17;11.37;;;;;;;;;;5068809;28;20496;-60
2020/12/18 05:14:38;;;;;;;13.40;12.00;;;;;;;;;;5069220;28;20231;-60
2020/12/18 05:17:13;;;;;;;14.73;11.87;;;;;;;;;;5075765;28;20818;-61
2020/12/18 05:19:43;;;;;;;16.00;13.47;;;;;;;;;;5064243;28;20462;-61
2020/12/18 05:22:11;;;;;;;13.47;12.07;;;;;;;;;;5064974;28;21131;-61
2020/12/18 05:24:38;;;;;;;13.00;11.03;;;;;;;;;;5070064;28;20435;-61
2020/12/18 05:27:10;;;;;;;14.63;13.07;;;;;;;;;;5065218;28;20992;-61
2020/12/18 05:29:48;;;;;;;14.53;12.47;;;;;;;;;;5073382;28;20435;-61
2020/12/18 05:32:14;;;;;;;12.77;11.57;;;;;;;;;;5072347;28;20508;-61
2020/12/18 05:34:40;;;;;;;13.30;11.40;;;;;;;;;;5060326;28;20834;-61
2020/12/18 05:37:05;;;;;;;14.70;12.63;;;;;;;;;;5057989;28;20286;-60
2020/12/18 05:39:34;;;;;;;13.10;11.77;;;;;;;;;;5070475;28;20840;-61
2020/12/18 05:42:00;;;;;;;13.17;11.70;;;;;;;;;;5065674;28;20552;-60
2020/12/18 05:44:28;;;;;;;16.60;11.70;;;;;;;;;;5063665;28;20470;-60
2020/12/18 05:47:01;;;;;;;14.10;12.20;;;;;;;;;;5076805;28;20926;-61
2020/12/18 05:49:29;;;;;;;13.33;11.80;;;;;;;;;;5066789;28;20468;-60
2020/12/18 05:51:54;;;;;;;14.73;12.67;;;;;;;;;;5067095;28;20524;-61
2020/12/18 05:54:19;;;;;;;13.20;11.77;;;;;;;;;;5063135;28;20440;-60
2020/12/18 05:56:46;;;;;;;14.23;11.63;;;;;;;;;;5062468;28;20225;-60
2020/12/18 05:59:18;;;;;;;12.80;11.50;;;;;;;;;;5069745;28;20248;-60
2020/12/18 06:01:52;;;;;;;14.87;12.27;;;;;;;;;;5068141;28;20497;-60
2020/12/18 06:04:22;;;;;;;11.20;10.10;;;;;;;;;;5062770;28;20458;-59
2020/12/18 06:06:54;;;;;;;13.57;10.73;;;;;;;;;;5063308;28;20444;-60
2020/12/18 06:09:21;;;;;;;12.90;11.60;;;;;;;;;;5049293;28;20520;-60
2020/12/18 06:11:46;;;;;;;16.00;11.47;;;;;;;;;;5062377;28;20585;-61
2020/12/18 06:14:14;;;;;;;14.60;10.50;;;;;;;;;;5067338;28;20483;-61
2020/12/18 06:16:50;;;;;;;13.30;11.03;;;;;;;;;;5069559;28;20228;-61
2020/12/18 06:19:18;;;;;;;14.30;12.23;;;;;;;;;;5065272;28;20815;-61
2020/12/18 06:21:54;;;;;;;12.20;11.00;;;;;;;;;;5062493;28;20464;-61
2020/12/18 06:24:19;;;;;;;12.60;10.60;;;;;;;;;;5053302;28;20778;-62
2020/12/18 06:26:45;;;;;;;15.20;12.17;;;;;;;;;;5072925;28;20445;-60
2020/12/18 06:29:16;;;;;;;11.80;10.67;;;;;;;;;;5058381;28;20222;-61
2020/12/18 06:31:41;;;;;;;13.17;11.80;;;;;;;;;;5057243;28;20535;-61
2020/12/18 06:34:07;;;;;;;12.90;11.60;;;;;;;;;;5069116;28;20595;-61
2020/12/18 06:36:44;;;;;;;13.77;10.87;;;;;;;;;;5067740;28;20250;-61
2020/12/18 06:39:23;;;;;;;13.93;11.27;;;;;;;;;;5062099;28;20229;-61
2020/12/18 06:42:07;;;;;;;13.47;11.13;;;;;;;;;;5062270;28;20496;-61
2020/12/18 06:44:45;;;;;;;14.30;11.10;;;;;;;;;;5065349;28;20447;-61
2020/12/18 06:47:28;;;;;;;15.97;12.97;;;;;;;;;;5068948;28;20430;-61
2020/12/18 06:49:57;;;;;;;14.43;12.40;;;;;;;;;;5057263;28;20460;-61
2020/12/18 06:52:54;;;;;;;18.17;14.47;;;;;;;;;;5067140;28;20537;-61
2020/12/18 06:55:29;;;;;;;14.00;11.50;;;;;;;;;;5068284;28;20957;-61
2020/12/18 06:58:09;;;;;;;14.00;12.60;;;;;;;;;;5068880;28;20437;-61
2020/12/18 07:00:38;;;;;;;14.83;13.20;;;;;;;;;;5064826;28;20482;-61
2020/12/18 07:03:04;;;;;;;15.93;14.23;;;;;;;;;;5060287;28;20465;-61
2020/12/18 07:05:33;;;;;;;14.57;12.00;;;;;;;;;;5066166;28;20532;-60
2020/12/18 07:08:00;;;;;;;13.33;11.93;;;;;;;;;;5070580;28;20539;-61
2020/12/18 07:10:29;;;;;;;15.63;12.00;;;;;;;;;;5065637;28;20952;-61
2020/12/18 07:12:57;;;;;;;15.60;13.17;;;;;;;;;;5059571;28;20442;-61
2020/12/18 07:15:26;;;;;;;13.00;11.57;;;;;;;;;;5065111;28;20495;-61
2020/12/18 07:17:55;;;;;;;12.73;11.40;;;;;;;;;;5067918;28;20469;-59
2020/12/18 07:20:20;;;;;;;12.90;11.10;;;;;;;;;;5066863;28;20425;-61
2020/12/18 07:22:45;;;;;;;13.37;11.27;;;;;;;;;;5056427;28;20491;-60
2020/12/18 07:25:12;;;;;;;15.07;12.43;;;;;;;;;;5057087;28;20220;-60
2020/12/18 07:27:38;;;;;;;16.63;11.90;;;;;;;;;;5069136;28;20226;-60
2020/12/18 07:30:11;;;;;;;15.50;12.23;;;;;;;;;;5056478;28;20439;-61
2020/12/18 07:32:36;;;;;;;15.27;12.83;;;;;;;;;;5060456;28;20475;-60
2020/12/18 07:35:09;;;;;;;16.63;13.40;;;;;;;;;;5061687;28;20488;-60
2020/12/18 07:37:37;;;;;;;18.80;14.63;;;;;;;;;;5067878;28;20213;-61
2020/12/18 07:40:05;;;;;;;15.50;13.07;;;;;;;;;;5067693;28;20447;-61
2020/12/18 07:42:32;;;;;;;16.50;13.97;;;;;;;;;;5048385;28;20563;-61
2020/12/18 07:45:08;;;;;;;14.63;11.63;;;;;;;;;;5060451;28;20473;-61
2020/12/18 07:47:37;;;;;;;13.23;11.93;;;;;;;;;;5066453;28;20459;-59
2020/12/18 07:50:05;;;;;;;14.27;11.73;;;;;;;;;;5056301;28;20488;-60
2020/12/18 07:52:30;;;;;;;13.53;11.93;;;;;;;;;;5065400;28;20465;-60
2020/12/18 07:54:55;;;;;;;15.03;12.80;;;;;;;;;;5066291;28;20441;-61
2020/12/18 07:57:21;;;;;;;15.27;13.67;;;;;;;;;;5062975;28;20551;-60
2020/12/18 07:59:46;;;;;;;14.43;12.73;;;;;;;;;;5060408;28;20242;-61
2020/12/18 08:02:20;;;;;;;16.77;12.67;;;;;;;;;;5065767;28;20221;-61
2020/12/18 08:04:47;;;;;;;16.43;12.40;;;;;;;;;;5067399;28;20585;-61
2020/12/18 08:07:13;;;;;;;16.13;12.33;;;;;;;;;;5063809;28;20463;-61
2020/12/18 08:09:39;;;;;;;15.27;12.13;;;;;;;;;;5060954;28;20467;-60
2020/12/18 08:12:10;;;;;;;16.40;12.70;;;;;;;;;;5063794;28;20751;-61
2020/12/18 08:14:35;;;;;;;14.27;12.00;;;;;;;;;;5067572;28;20472;-60
2020/12/18 08:17:00;;;;;;;14.03;12.60;;;;;;;;;;5062856;28;20480;-61
2020/12/18 08:19:25;;;;;;;16.60;12.70;;;;;;;;;;5060302;28;20240;-61
2020/12/18 08:21:54;;;;;;;23.40;13.17;;;;;;;;;;5064069;28;20230;-61
2020/12/18 08:24:27;;;;;;;14.37;11.90;;;;;;;;;;5050192;28;20265;-61
2020/12/18 08:27:03;;;;;;;14.93;13.27;;;;;;;;;;5069597;28;20438;-62
2020/12/18 08:29:31;;;;;;;16.50;13.43;;;;;;;;;;5042826;28;20452;-61
2020/12/18 08:31:57;;;;;;;17.40;13.03;;;;;;;;;;5053845;28;20452;-61
2020/12/18 08:34:24;;;;;;;14.23;12.77;;;;;;;;;;5067030;28;20442;-61
2020/12/18 08:36:50;;;;;;;16.70;12.63;;;;;;;;;;5067307;28;20888;-61
2020/12/18 08:39:15;;;;;;;16.37;13.87;;;;;;;;;;5060202;28;20466;-61
2020/12/18 08:42:01;;;;;;;14.47;12.80;;;;;;;;;;5060908;28;20253;-61
2020/12/18 08:44:29;;;;;;;14.30;12.33;;;;;;;;;;5051714;28;20219;-60
2020/12/18 08:46:55;;;;;;;20.20;14.07;;;;;;;;;;5061287;28;20451;-61
2020/12/18 08:49:22;;;;;;;15.07;13.47;;;;;;;;;;5076649;28;20520;-61
2020/12/18 08:51:50;;;;;;;15.23;13.50;;;;;;;;;;5063896;28;20513;-60
2020/12/18 08:54:34;;;;;;;18.53;13.80;;;;;;;;;;5067582;28;20463;-60
2020/12/18 08:57:24;;;;;;;15.90;12.80;;;;;;;;;;5063100;28;20478;-60
2020/12/18 08:59:58;;;;;;;20.70;13.50;;;;;;;;;;5063589;28;20467;-60
2020/12/18 09:02:25;;;;;;;14.63;13.10;;;;;;;;;;5067490;28;20487;-61
2020/12/18 09:05:09;;;;;;;15.57;12.97;;;;;;;;;;5069160;28;20465;-61
2020/12/18 09:07:51;;;;;;;14.73;12.50;;;;;;;;;;5070405;28;20927;-61
2020/12/18 09:10:29;;;;;;;13.30;11.90;;;;;;;;;;5053467;28;20879;-62
2020/12/18 09:12:54;;;;;;;16.57;13.47;;;;;;;;;;5063892;28;20961;-60
2020/12/18 09:15:22;;;;;;;18.37;12.37;;;;;;;;;;5075896;28;20523;-61
2020/12/18 09:18:07;;;;;;;16.40;12.90;;;;;;;;;;5062655;28;20237;-60
2020/12/18 09:20:43;;;;;;;15.87;13.50;;;;;;;;;;5065279;28;20438;-60
2020/12/18 09:23:10;;;;;;;14.10;12.70;;;;;;;;;;5065062;28;20436;-61
2020/12/18 09:25:42;;;;;;;18.40;13.17;;;;;;;;;;5063819;28;20451;-61
2020/12/18 09:28:12;;;;;;;19.37;13.20;;;;;;;;;;5068362;28;20461;-61
2020/12/18 09:30:38;;;;;;;13.93;12.27;;;;;;;;;;5058163;28;20561;-61
2020/12/18 09:33:10;;;;;;;15.00;13.50;;;;;;;;;;5066831;28;20510;-60
2020/12/18 09:35:36;;;;;;;17.93;13.27;;;;;;;;;;5063360;28;20229;-61
2020/12/18 09:38:01;;;;;;;13.90;12.23;;;;;;;;;;5066810;28;20465;-60
2020/12/18 09:40:27;;;;;;;16.83;13.73;;;;;;;;;;5070158;28;20682;-60
2020/12/18 09:42:53;;;;;;;14.97;13.23;;;;;;;;;;5067166;28;20230;-60
2020/12/18 09:45:18;;;;;;;15.83;12.17;;;;;;;;;;5062821;28;20249;-61
2020/12/18 09:47:43;;;;;;;13.67;12.23;;;;;;;;;;5065493;28;20228;-60
2020/12/18 09:50:09;;;;;;;18.40;12.70;;;;;;;;;;5060970;28;20563;-61
2020/12/18 09:52:34;;;;;;;13.67;12.17;;;;;;;;;;5066473;28;20240;-62
2020/12/18 09:55:00;;;;;;;15.93;13.43;;;;;;;;;;5069932;28;20842;-60
2020/12/18 09:57:25;;;;;;;17.87;12.50;;;;;;;;;;5065895;28;20260;-61
2020/12/18 09:59:51;;;;;;;13.83;12.33;;;;;;;;;;5060275;28;20225;-61
2020/12/18 10:02:16;;;;;;;13.60;11.90;;;;;;;;;;5064909;28;20545;-61
2020/12/18 10:04:42;;;;;;;17.20;12.00;;;;;;;;;;5062584;28;20280;-62
2020/12/18 10:07:07;;;;;;;13.00;11.70;;;;;;;;;;5067735;28;20227;-61
2020/12/18 10:09:33;;;;;;;15.97;13.80;;;;;;;;;;5069467;28;20652;-61
2020/12/18 10:11:59;;;;;;;15.30;11.20;;;;;;;;;;5056326;28;20224;-60
2020/12/18 10:14:25;;;;;;;14.97;13.40;;;;;;;;;;5064735;28;20224;-61
2020/12/18 10:16:51;;;;;;;15.27;11.73;;;;;;;;;;5064320;28;20480;-61
2020/12/18 10:19:16;;;;;;;16.00;11.60;;;;;;;;;;5062774;28;20229;-61
2020/12/18 10:21:41;;;;;;;13.83;11.43;;;;;;;;;;5066824;28;20271;-61
2020/12/18 10:24:07;;;;;;;14.60;12.33;;;;;;;;;;5050647;28;20307;-61
2020/12/18 10:26:33;;;;;;;16.70;13.30;;;;;;;;;;5052367;28;20224;-61
2020/12/18 10:28:58;;;;;;;14.30;12.20;;;;;;;;;;5068102;28;20652;-61
2020/12/18 10:31:23;;;;;;;13.40;12.00;;;;;;;;;;5054180;28;20372;-61
2020/12/18 10:33:49;;;;;;;16.63;11.40;;;;;;;;;;5068722;28;20233;-61
2020/12/18 10:36:14;;;;;;;14.77;11.47;;;;;;;;;;5069124;28;20359;-61
2020/12/18 10:38:40;;;;;;;15.33;12.10;;;;;;;;;;5062036;28;20227;-61
2020/12/18 10:41:07;;;;;;;19.40;13.10;;;;;;;;;;5062124;28;20226;-61
2020/12/18 10:43:33;;;;;;;14.03;12.40;;;;;;;;;;5048093;28;20562;-61
2020/12/18 10:45:58;;;;;;;14.00;12.10;;;;;;;;;;5062092;28;20438;-60
2020/12/18 10:48:24;;;;;;;13.03;11.60;;;;;;;;;;5068765;28;20230;-61
2020/12/18 10:50:49;;;;;;;13.00;11.67;;;;;;;;;;5062476;28;20313;-62
2020/12/18 10:53:14;;;;;;;16.20;13.30;;;;;;;;;;5068254;28;20278;-61
2020/12/18 10:55:40;;;;;;;14.30;12.80;;;;;;;;;;5060074;28;20294;-60
2020/12/18 10:58:05;;;;;;;16.97;11.80;;;;;;;;;;5068482;28;20656;-60
2020/12/18 11:00:31;;;;;;;18.40;12.70;;;;;;;;;;5067689;28;20234;-62
2020/12/18 11:02:57;;;;;;;14.77;12.50;;;;;;;;;;5061875;28;20228;-61
2020/12/18 11:05:22;;;;;;;13.17;11.77;;;;;;;;;;5062363;28;20774;-60
2020/12/18 11:07:47;;;;;;;13.97;12.03;;;;;;;;;;5068371;28;20526;-61
2020/12/18 11:10:13;;;;;;;18.20;12.70;;;;;;;;;;5067972;28;20548;-61
2020/12/18 11:12:38;;;;;;;19.70;13.10;;;;;;;;;;5061227;28;20309;-61
2020/12/18 11:15:03;;;;;;;13.23;11.93;;;;;;;;;;5062623;28;20308;-61
2020/12/18 11:17:29;;;;;;;12.60;11.30;;;;;;;;;;5067811;28;20239;-61
2020/12/18 11:19:54;;;;;;;14.03;12.67;;;;;;;;;;5067208;28;20578;-61
2020/12/18 11:22:21;;;;;;;16.93;12.53;;;;;;;;;;5060453;28;20316;-61
2020/12/18 11:24:46;;;;;;;13.03;11.13;;;;;;;;;;5044281;28;20302;-61
2020/12/18 11:27:11;;;;;;;12.50;10.80;;;;;;;;;;5062532;28;20522;-61
2020/12/18 11:29:37;;;;;;;14.47;12.00;;;;;;;;;;5061723;28;20230;-60
2020/12/18 11:32:03;;;;;;;13.70;12.37;;;;;;;;;;5060755;28;20710;-61
2020/12/18 11:34:28;;;;;;;18.60;12.70;;;;;;;;;;5061765;28;20225;-61
2020/12/18 11:36:54;;;;;;;12.20;10.80;;;;;;;;;;5067126;28;20221;-60
2020/12/18 11:39:21;;;;;;;12.33;10.90;;;;;;;;;;5067545;28;20233;-61
2020/12/18 11:41:47;;;;;;;14.33;11.60;;;;;;;;;;5060538;28;20307;-60
2020/12/18 11:44:25;;;;;;;12.90;11.20;;;;;;;;;;5057962;28;20619;-61
2020/12/18 11:47:47;;;;;;;;;;;;;;;;;;;;;
2020/12/18 11:50:49;;;;;;;;;;;;;;;;;;;;;
2020/12/18 11:54:05;;;;;;;13.00;10.57;;;;;;;;;;5048027;28;20455;-61
2020/12/18 11:59:57;;;;;;;9.80;8.80;;;;;;;;;;5055301;28;20433;-60
2020/12/18 12:09:00;;;;;;;11.23;10.10;;;;;;;;;;5023358;28;20768;-60
2020/12/18 12:12:18;;;;;;;12.27;9.80;;;;;;;;;;5061140;28;20553;-61
2020/12/18 12:15:42;;;;;;;;;;;;;;;;;;;;;
2020/12/18 12:18:51;;;;;;;;;;;;;;;;;;;;;
2020/12/18 12:27:54;;;;;;;11.53;10.23;;;;;;;;;;4918668;28;20470;-61
2020/12/18 12:30:20;;;;;;;11.47;10.20;;;;;;;;;;5050804;28;20754;-61
2020/12/18 12:33:39;;;;;;;;;;;;;;;;;;;;;
2020/12/18 12:37:13;;;;;;;;;;;;;;;;;;;;;
2020/12/18 12:51:05;;;;;;;;;;;;;;;;;;;;;
2020/12/18 12:57:48;;;;;;;;;;;;;;;;;;;;;
2020/12/18 13:03:33;;;;;;;10.80;8.50;;;;;;;;;;4866602;29;20549;-60
2020/12/18 13:05:58;;;;;;;10.33;9.23;;;;;;;;;;4880050;29;20490;-60
2020/12/18 13:08:23;;;;;;;9.50;8.40;;;;;;;;;;4956907;28;20244;-60
2020/12/18 13:10:48;;;;;;;9.03;7.93;;;;;;;;;;5012023;28;20366;-60
2020/12/18 13:13:14;;;;;;;9.67;7.90;;;;;;;;;;5052870;28;20237;-60
2020/12/18 13:15:39;;;;;;;14.20;8.30;;;;;;;;;;5053546;28;20316;-60
2020/12/18 13:18:06;;;;;;;13.43;9.40;;;;;;;;;;5052263;28;20232;-60
2020/12/18 13:20:31;;;;;;;12.30;9.23;;;;;;;;;;5053076;28;20684;-60
2020/12/18 13:22:56;;;;;;;12.27;9.30;;;;;;;;;;5053248;28;20470;-61
2020/12/18 13:25:24;;;;;;;11.77;8.33;;;;;;;;;;5039180;28;20600;-61
2020/12/18 13:27:51;;;;;;;10.20;8.60;;;;;;;;;;5053617;28;20224;-61
2020/12/18 13:30:16;;;;;;;10.50;8.70;;;;;;;;;;5052706;28;20818;-60
2020/12/18 13:32:41;;;;;;;11.77;9.50;;;;;;;;;;5052861;28;20459;-60
2020/12/18 13:35:06;;;;;;;11.93;8.60;;;;;;;;;;5055277;28;20241;-60
2020/12/18 13:37:32;;;;;;;12.10;8.90;;;;;;;;;;5055945;28;20233;-60
2020/12/18 13:39:57;;;;;;;10.20;8.50;;;;;;;;;;5053750;28;20664;-61
2020/12/18 13:42:22;;;;;;;11.13;9.53;;;;;;;;;;5055293;28;20304;-60
2020/12/18 13:44:49;;;;;;;13.93;9.27;;;;;;;;;;5045703;28;20552;-61
2020/12/18 13:47:14;;;;;;;12.40;9.53;;;;;;;;;;5056334;28;20237;-60
2020/12/18 13:49:41;;;;;;;11.80;9.50;;;;;;;;;;5056278;28;20434;-61
2020/12/18 13:52:06;;;;;;;11.90;8.03;;;;;;;;;;5056219;28;20753;-62
2020/12/18 13:54:31;;;;;;;9.97;8.10;;;;;;;;;;5055735;28;20467;-61
2020/12/18 13:56:56;;;;;;;11.07;8.67;;;;;;;;;;5047913;28;20234;-61
2020/12/18 13:59:22;;;;;;;17.00;8.70;;;;;;;;;;5052303;28;20620;-61
2020/12/18 14:01:47;;;;;;;12.60;9.23;;;;;;;;;;5056046;28;20222;-62
2020/12/18 14:04:12;;;;;;;10.90;9.10;;;;;;;;;;5055024;28;20241;-61
2020/12/18 14:06:37;;;;;;;11.07;8.10;;;;;;;;;;5056581;28;20252;-61
2020/12/18 14:09:03;;;;;;;9.93;8.43;;;;;;;;;;5056230;28;20286;-62
2020/12/18 14:11:29;;;;;;;13.60;9.30;;;;;;;;;;5055584;28;20229;-61
2020/12/18 14:13:54;;;;;;;13.60;10.13;;;;;;;;;;5055828;28;20526;-61
2020/12/18 14:16:19;;;;;;;10.63;7.87;;;;;;;;;;5055134;28;20252;-61
2020/12/18 14:18:45;;;;;;;10.43;8.73;;;;;;;;;;5056050;28;20300;-60
2020/12/18 14:21:11;;;;;;;10.43;8.03;;;;;;;;;;5055210;28;20347;-62
2020/12/18 14:23:36;;;;;;;11.73;8.00;;;;;;;;;;5055058;28;20467;-61
2020/12/18 14:26:01;;;;;;;13.93;8.10;;;;;;;;;;5046162;28;20304;-61
2020/12/18 14:28:27;;;;;;;10.20;8.23;;;;;;;;;;5051472;28;20541;-61
2020/12/18 14:30:53;;;;;;;9.40;7.83;;;;;;;;;;5055005;28;20228;-61
2020/12/18 14:33:18;;;;;;;12.30;8.40;;;;;;;;;;5053996;28;20457;-61
2020/12/18 14:35:44;;;;;;;11.33;8.40;;;;;;;;;;5055630;28;20678;-61
2020/12/18 14:38:09;;;;;;;13.30;8.90;;;;;;;;;;5055668;28;20224;-61
2020/12/18 14:40:34;;;;;;;12.57;9.17;;;;;;;;;;5055371;28;20554;-60
2020/12/18 14:42:59;;;;;;;10.83;8.50;;;;;;;;;;5055632;28;20225;-61
2020/12/18 14:45:25;;;;;;;12.23;8.17;;;;;;;;;;5053185;28;20746;-62
2020/12/18 14:47:50;;;;;;;13.33;8.33;;;;;;;;;;5051975;28;20224;-61
2020/12/18 14:50:15;;;;;;;12.50;8.00;;;;;;;;;;5051396;28;20362;-61
2020/12/18 14:52:41;;;;;;;9.50;8.60;;;;;;;;;;5053214;28;20290;-62
2020/12/18 14:55:06;;;;;;;14.40;9.47;;;;;;;;;;5053607;28;20232;-61
2020/12/18 14:57:31;;;;;;;13.53;10.23;;;;;;;;;;5053164;28;20314;-61
2020/12/18 14:59:57;;;;;;;8.90;7.70;;;;;;;;;;5053286;28;20227;-61
2020/12/18 15:02:22;;;;;;;9.43;8.43;;;;;;;;;;5054671;28;20298;-61
2020/12/18 15:04:47;;;;;;;10.07;7.97;;;;;;;;;;5055162;28;20285;-61
2020/12/18 15:07:13;;;;;;;9.03;7.77;;;;;;;;;;5055504;28;20347;-61
2020/12/18 15:09:38;;;;;;;15.90;9.23;;;;;;;;;;5054923;28;20672;-61